Time;durP1;ratioP1;P1;durP2;ratioP2;P2;SDS_P1;SDS_P2;PMS_P1;PMS_P2;Temp;Humidity;BMP_temperature;BMP_pressure;BME280_temperature;BME280_humidity;BME280_pressure;Samples;Min_cycle;Max_cycle;Signal;HPM_P1;HPM_P2
2024/04/05 00:00:45;;;;;;;6.30;2.40;;;15.70;77.80;;;;;;4997592;28;20026;-39
2024/04/05 00:03:11;;;;;;;5.88;2.10;;;15.70;77.80;;;;;;4997453;28;20109;-40
2024/04/05 00:05:37;;;;;;;4.88;2.00;;;15.70;77.80;;;;;;4991651;28;20081;-40
2024/04/05 00:08:03;;;;;;;7.38;2.15;;;15.70;77.80;;;;;;5000892;28;20062;-36
2024/04/05 00:10:29;;;;;;;7.60;2.20;;;15.70;77.80;;;;;;4995894;28;20105;-39
2024/04/05 00:12:58;;;;;;;5.35;2.08;;;15.70;77.90;;;;;;4998613;28;20091;-39
2024/04/05 00:15:23;;;;;;;4.60;1.80;;;15.60;77.80;;;;;;4998733;28;20034;-37
2024/04/05 00:17:49;;;;;;;5.05;2.20;;;15.60;77.90;;;;;;4995373;28;20034;-36
2024/04/05 00:20:15;;;;;;;5.13;1.70;;;15.60;77.80;;;;;;4998779;28;20070;-40
2024/04/05 00:22:41;;;;;;;5.13;2.08;;;15.60;77.90;;;;;;5030475;28;20049;-41
2024/04/05 00:25:06;;;;;;;5.65;1.92;;;15.60;77.90;;;;;;4996108;28;20034;-36
2024/04/05 00:27:33;;;;;;;5.45;1.92;;;15.60;77.90;;;;;;5001416;28;20022;-39
2024/04/05 00:30:00;;;;;;;6.50;2.05;;;15.60;77.90;;;;;;4990480;28;20035;-37
2024/04/05 00:32:26;;;;;;;5.72;2.13;;;15.50;77.80;;;;;;5001941;28;20036;-40
2024/04/05 00:34:52;;;;;;;6.30;2.25;;;15.50;77.90;;;;;;4996253;28;20092;-40
2024/04/05 00:37:18;;;;;;;5.18;1.98;;;15.50;77.90;;;;;;4996351;28;20017;-35
2024/04/05 00:39:44;;;;;;;5.30;2.03;;;15.50;77.90;;;;;;5002790;28;20054;-38
2024/04/05 00:42:10;;;;;;;4.53;1.85;;;15.50;77.90;;;;;;5000135;28;20026;-36
2024/04/05 00:44:35;;;;;;;5.32;1.80;;;15.50;77.90;;;;;;5002013;28;20056;-37
2024/04/05 00:47:01;;;;;;;5.47;2.38;;;15.50;78.50;;;;;;5010490;28;20026;-38
2024/04/05 00:49:29;;;;;;;5.05;2.15;;;15.40;77.80;;;;;;4999873;28;20054;-39
2024/04/05 00:51:56;;;;;;;7.38;1.92;;;15.50;77.90;;;;;;5002689;28;20023;-38
2024/04/05 00:54:23;;;;;;;7.45;2.10;;;15.40;77.90;;;;;;5000134;28;20026;-37
2024/04/05 00:56:49;;;;;;;5.10;2.00;;;15.40;77.90;;;;;;4991573;28;20101;-38
2024/04/05 00:59:17;;;;;;;5.43;2.00;;;15.40;78.00;;;;;;4991717;28;20038;-40
2024/04/05 01:01:44;;;;;;;4.90;1.70;;;15.40;78.50;;;;;;4989677;28;20027;-39
2024/04/05 01:04:11;;;;;;;3.92;1.95;;;15.40;77.90;;;;;;4991346;28;20107;-34
2024/04/05 01:06:45;;;;;;;7.00;1.95;;;15.40;77.90;;;;;;5000205;28;20038;-30
2024/04/05 01:09:12;;;;;;;7.78;2.40;;;15.40;78.00;;;;;;4991072;28;20034;-31
2024/04/05 01:11:38;;;;;;;5.28;2.10;;;15.40;77.90;;;;;;5000150;28;20418;-30
2024/04/05 01:14:04;;;;;;;5.93;1.98;;;15.40;77.90;;;;;;4999176;28;20037;-31
2024/04/05 01:16:30;;;;;;;6.25;2.42;;;15.40;78.00;;;;;;4997345;28;20026;-31
2024/04/05 01:18:57;;;;;;;5.50;2.08;;;15.30;77.90;;;;;;4997940;28;20018;-30
2024/04/05 01:21:23;;;;;;;5.47;1.98;;;15.40;78.00;;;;;;4991554;28;20032;-30
2024/04/05 01:23:49;;;;;;;5.05;2.10;;;15.30;78.00;;;;;;4994712;28;20299;-30
2024/04/05 01:26:14;;;;;;;4.38;1.83;;;15.30;78.00;;;;;;4999047;28;20046;-31
2024/04/05 01:28:40;;;;;;;4.32;1.77;;;15.30;78.00;;;;;;4996689;28;20018;-30
2024/04/05 01:31:06;;;;;;;6.13;1.92;;;15.30;78.10;;;;;;4999927;28;20034;-30
2024/04/05 01:33:32;;;;;;;4.72;1.70;;;15.30;78.00;;;;;;4999155;28;21718;-30
2024/04/05 01:35:57;;;;;;;5.22;1.80;;;15.30;78.10;;;;;;4994727;28;20026;-31
2024/04/05 01:38:23;;;;;;;6.20;2.15;;;15.30;78.10;;;;;;5000429;28;20050;-30
2024/04/05 01:40:49;;;;;;;4.93;1.88;;;15.30;78.10;;;;;;4999912;28;20026;-31
2024/04/05 01:43:15;;;;;;;4.45;1.70;;;15.30;78.10;;;;;;5003287;28;20045;-30
2024/04/05 01:45:41;;;;;;;4.05;1.65;;;15.30;78.20;;;;;;4985520;28;20051;-31
2024/04/05 01:48:07;;;;;;;4.43;1.80;;;15.30;78.20;;;;;;4984958;28;20103;-31
2024/04/05 01:50:33;;;;;;;5.38;1.90;;;15.30;78.10;;;;;;4998940;28;20545;-30
2024/04/05 01:52:59;;;;;;;4.28;1.92;;;15.30;78.10;;;;;;4999396;28;20030;-30
2024/04/05 01:55:24;;;;;;;4.65;1.85;;;15.30;78.20;;;;;;4997260;28;20054;-30
2024/04/05 01:57:53;;;;;;;4.28;1.98;;;15.30;78.20;;;;;;5032086;28;20026;-31
2024/04/05 02:00:19;;;;;;;4.78;2.10;;;15.30;78.20;;;;;;4999585;28;20049;-30
2024/04/05 02:02:47;;;;;;;6.10;2.05;;;15.30;78.20;;;;;;5015228;28;20033;-30
2024/04/05 02:05:13;;;;;;;5.68;2.08;;;15.30;78.20;;;;;;4997143;28;20050;-30
2024/04/05 02:07:39;;;;;;;5.03;1.83;;;15.30;78.20;;;;;;4995773;28;20057;-30
2024/04/05 02:10:05;;;;;;;4.18;1.83;;;15.30;78.20;;;;;;4998731;28;20098;-40
2024/04/05 02:12:31;;;;;;;3.97;2.05;;;15.30;78.90;;;;;;4998378;28;20026;-30
2024/04/05 02:14:57;;;;;;;3.25;1.70;;;15.30;78.20;;;;;;4989416;28;20029;-35
2024/04/05 02:17:23;;;;;;;3.03;1.63;;;15.20;78.20;;;;;;4996384;28;20026;-34
2024/04/05 02:19:50;;;;;;;4.78;1.58;;;15.30;78.30;;;;;;4998519;28;20398;-36
2024/04/05 02:22:16;;;;;;;4.55;1.88;;;15.30;78.30;;;;;;5006998;28;20034;-39
2024/04/05 02:24:42;;;;;;;3.55;1.58;;;15.30;78.30;;;;;;4992750;28;20023;-39
2024/04/05 02:27:08;;;;;;;5.53;1.88;;;15.30;78.30;;;;;;5029619;28;20373;-34
2024/04/05 02:29:34;;;;;;;4.38;1.95;;;15.20;78.20;;;;;;4997967;28;20057;-38
2024/04/05 02:32:00;;;;;;;4.68;1.95;;;15.30;78.30;;;;;;4995675;28;20026;-40
2024/04/05 02:34:25;;;;;;;3.92;1.77;;;15.20;78.30;;;;;;4995231;28;20066;-39
2024/04/05 02:36:52;;;;;;;3.90;1.80;;;15.20;78.30;;;;;;4991961;28;20030;-36
2024/04/05 02:39:18;;;;;;;4.28;1.98;;;15.20;78.30;;;;;;4999139;28;20038;-37
2024/04/05 02:41:45;;;;;;;3.80;1.50;;;15.30;78.40;;;;;;5001045;28;20109;-39
2024/04/05 02:44:11;;;;;;;2.20;1.70;;;15.30;78.40;;;;;;4993523;28;20022;-39
2024/04/05 02:46:37;;;;;;;4.78;1.80;;;15.20;78.40;;;;;;4996810;28;20038;-37
2024/04/05 02:49:02;;;;;;;3.00;1.58;;;15.20;78.40;;;;;;4998058;28;20029;-38
2024/04/05 02:51:28;;;;;;;3.60;1.65;;;15.20;78.40;;;;;;4997310;28;20037;-36
2024/04/05 02:53:54;;;;;;;4.40;1.85;;;15.20;78.50;;;;;;4991733;28;20038;-37
2024/04/05 02:56:20;;;;;;;3.35;1.75;;;15.20;78.50;;;;;;4989532;28;20015;-37
2024/04/05 02:58:45;;;;;;;2.85;1.52;;;15.20;78.50;;;;;;4994132;28;20085;-37
2024/04/05 03:01:11;;;;;;;3.63;1.20;;;15.20;78.50;;;;;;4992021;28;20022;-38
2024/04/05 03:03:37;;;;;;;3.75;1.67;;;15.20;78.50;;;;;;4999592;28;20033;-34
2024/04/05 03:06:03;;;;;;;3.33;1.55;;;15.20;78.50;;;;;;4995902;28;20043;-38
2024/04/05 03:08:30;;;;;;;4.65;1.70;;;15.20;78.50;;;;;;4996927;28;20058;-37
2024/04/05 03:10:55;;;;;;;5.05;1.73;;;15.20;78.50;;;;;;4997839;28;20085;-39
2024/04/05 03:13:21;;;;;;;4.00;2.00;;;15.20;78.50;;;;;;4996496;28;20218;-34
2024/04/05 03:15:47;;;;;;;4.00;1.80;;;15.10;78.50;;;;;;5007655;28;20105;-37
2024/04/05 03:18:13;;;;;;;3.15;1.40;;;15.20;78.70;;;;;;4996002;28;20168;-36
2024/04/05 03:20:39;;;;;;;3.42;1.55;;;15.10;78.50;;;;;;4992182;28;20037;-39
2024/04/05 03:23:06;;;;;;;4.60;1.80;;;15.20;78.60;;;;;;4989426;28;20487;-34
2024/04/05 03:25:32;;;;;;;3.17;1.70;;;15.10;78.60;;;;;;4993166;28;20040;-37
2024/04/05 03:27:58;;;;;;;4.03;1.80;;;15.20;78.60;;;;;;4997705;28;20053;-35
2024/04/05 03:30:24;;;;;;;6.15;1.70;;;15.20;78.70;;;;;;4994776;28;20042;-35
2024/04/05 03:32:50;;;;;;;3.88;1.77;;;15.10;78.60;;;;;;4991994;28;20022;-36
2024/04/05 03:35:15;;;;;;;3.90;1.63;;;15.10;78.60;;;;;;4999570;28;20394;-36
2024/04/05 03:37:41;;;;;;;4.03;1.58;;;15.10;78.60;;;;;;4997019;28;20029;-38
2024/04/05 03:40:07;;;;;;;4.28;1.88;;;15.10;78.60;;;;;;4992827;28;20491;-37
2024/04/05 03:42:33;;;;;;;3.72;1.50;;;15.10;78.70;;;;;;4989493;28;20042;-37
2024/04/05 03:44:59;;;;;;;3.30;1.80;;;15.10;78.70;;;;;;4991744;28;20038;-39
2024/04/05 03:47:25;;;;;;;3.63;1.88;;;15.10;78.60;;;;;;4995646;28;20037;-33
2024/04/05 03:49:51;;;;;;;3.70;1.83;;;15.10;78.60;;;;;;5000085;28;20026;-37
2024/04/05 03:52:17;;;;;;;4.63;1.88;;;15.10;78.50;;;;;;5011124;28;20030;-38
2024/04/05 03:54:42;;;;;;;3.92;1.77;;;15.10;78.50;;;;;;5002196;28;20066;-36
2024/04/05 03:57:09;;;;;;;4.05;1.70;;;15.10;78.50;;;;;;5003984;28;20037;-36
2024/04/05 03:59:34;;;;;;;3.15;1.60;;;15.10;78.60;;;;;;4996351;28;20037;-34
2024/04/05 04:02:00;;;;;;;5.65;1.77;;;15.10;78.50;;;;;;5001281;28;20027;-35
2024/04/05 04:04:27;;;;;;;5.68;1.70;;;15.10;78.50;;;;;;4997502;28;20061;-39
2024/04/05 04:06:54;;;;;;;2.97;1.52;;;15.10;78.50;;;;;;5002896;28;20417;-36
2024/04/05 04:09:20;;;;;;;4.60;1.60;;;15.10;78.50;;;;;;5002776;28;20061;-34
2024/04/05 04:11:45;;;;;;;4.03;1.88;;;15.10;78.50;;;;;;4998001;28;20033;-38
2024/04/05 04:14:13;;;;;;;5.55;1.80;;;15.10;78.50;;;;;;4998479;28;20380;-38
2024/04/05 04:16:40;;;;;;;3.10;1.60;;;15.10;78.50;;;;;;4999267;28;20031;-35
2024/04/05 04:19:07;;;;;;;3.70;1.70;;;15.10;78.50;;;;;;4998734;28;20042;-35
2024/04/05 04:21:33;;;;;;;5.13;1.65;;;15.10;78.50;;;;;;4997115;28;20022;-34
2024/04/05 04:23:59;;;;;;;3.60;1.70;;;15.10;78.50;;;;;;5001230;28;20044;-32
2024/04/05 04:26:25;;;;;;;4.00;1.92;;;15.10;78.50;;;;;;4992657;28;20121;-37
2024/04/05 04:28:50;;;;;;;3.58;1.75;;;15.10;78.50;;;;;;4997365;28;20035;-39
2024/04/05 04:31:21;;;;;;;4.15;1.83;;;15.10;78.50;;;;;;4996417;28;20053;-38
2024/04/05 04:33:50;;;;;;;4.78;1.80;;;15.10;78.50;;;;;;4998268;28;20029;-33
2024/04/05 04:36:20;;;;;;;5.00;2.20;;;15.10;78.50;;;;;;4993725;28;20025;-37
2024/04/05 04:38:47;;;;;;;4.30;1.73;;;15.10;78.50;;;;;;4999725;28;20041;-37
2024/04/05 04:41:12;;;;;;;3.83;1.80;;;15.10;78.50;;;;;;4990841;28;20378;-38
2024/04/05 04:43:42;;;;;;;3.65;1.60;;;15.10;78.50;;;;;;4993561;28;20080;-36
2024/04/05 04:46:11;;;;;;;4.20;1.83;;;15.10;78.50;;;;;;4990654;28;20551;-36
2024/04/05 04:48:38;;;;;;;3.60;1.80;;;15.10;78.50;;;;;;5001198;28;20343;-37
2024/04/05 04:51:04;;;;;;;3.70;1.80;;;15.10;78.50;;;;;;4994975;28;20113;-36
2024/04/05 04:53:30;;;;;;;3.72;1.80;;;15.10;78.50;;;;;;4999821;28;20030;-38
2024/04/05 04:55:56;;;;;;;3.72;1.60;;;15.10;78.50;;;;;;4991814;28;20213;-38
2024/04/05 04:58:23;;;;;;;4.65;2.08;;;15.10;78.50;;;;;;4999760;28;20031;-36
2024/04/05 05:00:51;;;;;;;2.67;1.58;;;15.10;78.50;;;;;;4997902;28;20571;-36
2024/04/05 05:03:17;;;;;;;3.50;1.70;;;15.10;78.50;;;;;;4996610;28;20429;-39
2024/04/05 05:05:43;;;;;;;3.83;1.63;;;15.10;78.60;;;;;;4990694;28;20058;-38
2024/04/05 05:08:12;;;;;;;3.45;1.70;;;15.10;78.60;;;;;;4995634;28;20407;-37
2024/04/05 05:10:42;;;;;;;5.22;1.90;;;15.10;78.60;;;;;;5024747;28;20043;-36
2024/04/05 05:13:11;;;;;;;4.22;1.75;;;15.10;78.60;;;;;;4994218;28;20086;-38
2024/04/05 05:15:44;;;;;;;3.15;1.75;;;15.10;78.70;;;;;;5010728;28;20450;-38
2024/04/05 05:18:11;;;;;;;3.05;1.75;;;15.10;78.70;;;;;;5013697;28;20050;-38
2024/04/05 05:20:45;;;;;;;3.92;1.90;;;15.10;78.70;;;;;;4991894;28;20077;-38
2024/04/05 05:23:11;;;;;;;4.40;1.88;;;15.10;78.70;;;;;;4996793;28;20079;-38
2024/04/05 05:25:37;;;;;;;4.60;1.92;;;15.10;78.70;;;;;;4999943;28;20034;-38
2024/04/05 05:28:04;;;;;;;5.38;1.70;;;15.00;78.60;;;;;;5001995;28;20042;-35
2024/04/05 05:30:30;;;;;;;2.63;1.60;;;15.10;78.80;;;;;;4998167;28;20025;-37
2024/04/05 05:32:56;;;;;;;3.53;1.50;;;15.00;78.70;;;;;;4997665;28;20101;-40
2024/04/05 05:35:23;;;;;;;3.78;2.00;;;15.10;78.80;;;;;;4991675;28;20485;-39
2024/04/05 05:37:49;;;;;;;3.97;1.83;;;15.10;78.80;;;;;;5013304;28;20030;-40
2024/04/05 05:40:15;;;;;;;3.83;1.70;;;15.10;78.80;;;;;;5000219;28;20534;-40
2024/04/05 05:42:40;;;;;;;3.72;2.03;;;15.00;78.70;;;;;;4999128;28;20025;-39
2024/04/05 05:45:06;;;;;;;2.42;1.60;;;15.00;78.80;;;;;;4996027;28;20046;-38
2024/04/05 05:47:32;;;;;;;3.80;1.70;;;15.00;78.80;;;;;;4996768;28;20033;-41
2024/04/05 05:49:58;;;;;;;4.55;1.73;;;15.10;78.90;;;;;;5000271;28;20061;-37
2024/04/05 05:52:24;;;;;;;4.07;1.98;;;15.10;78.90;;;;;;4991927;28;20363;-42
2024/04/05 05:54:51;;;;;;;4.05;1.80;;;15.00;78.80;;;;;;5000649;28;20029;-39
2024/04/05 05:57:16;;;;;;;3.67;1.90;;;15.10;78.90;;;;;;4994320;28;20040;-42
2024/04/05 05:59:42;;;;;;;4.00;1.80;;;15.00;78.80;;;;;;5003155;28;20030;-39
2024/04/05 06:02:08;;;;;;;4.75;1.92;;;15.00;78.80;;;;;;5011900;28;20046;-41
2024/04/05 06:04:34;;;;;;;4.88;1.70;;;15.00;78.80;;;;;;4996827;28;20058;-41
2024/04/05 06:06:59;;;;;;;3.00;1.70;;;15.10;79.00;;;;;;5000951;28;20449;-40
2024/04/05 06:09:25;;;;;;;3.75;1.83;;;15.00;78.90;;;;;;4993744;28;20027;-43
2024/04/05 06:11:52;;;;;;;3.95;2.10;;;15.00;78.90;;;;;;4988576;28;20509;-42
2024/04/05 06:14:18;;;;;;;6.25;1.90;;;15.10;78.90;;;;;;5000516;28;20089;-47
2024/04/05 06:16:44;;;;;;;3.38;1.80;;;15.10;78.90;;;;;;4996218;28;20058;-39
2024/04/05 06:19:10;;;;;;;4.55;2.05;;;15.10;79.00;;;;;;4998646;28;20105;-42
2024/04/05 06:21:36;;;;;;;3.85;1.88;;;15.10;79.00;;;;;;5000886;28;20312;-42
2024/04/05 06:24:01;;;;;;;3.58;1.92;;;15.10;79.00;;;;;;4990056;28;20030;-40
2024/04/05 06:26:27;;;;;;;4.78;2.05;;;15.10;79.00;;;;;;4990547;28;20543;-42
2024/04/05 06:28:53;;;;;;;2.65;1.50;;;15.10;79.00;;;;;;4994669;28;20038;-41
2024/04/05 06:31:19;;;;;;;3.28;2.00;;;15.10;78.90;;;;;;4999317;28;20033;-39
2024/04/05 06:33:45;;;;;;;4.35;1.90;;;15.10;79.00;;;;;;4995323;28;20049;-42
2024/04/05 06:36:11;;;;;;;3.60;1.80;;;15.10;79.00;;;;;;4999579;28;20086;-42
2024/04/05 06:38:37;;;;;;;3.50;1.88;;;15.20;79.00;;;;;;4986447;28;20023;-40
2024/04/05 06:41:03;;;;;;;2.75;1.73;;;15.20;79.00;;;;;;4993154;28;20023;-40
2024/04/05 06:43:30;;;;;;;3.80;1.92;;;15.10;79.00;;;;;;4991037;28;20422;-41
2024/04/05 06:46:00;;;;;;;4.35;2.20;;;15.20;79.00;;;;;;4996915;28;20068;-39
2024/04/05 06:48:26;;;;;;;4.00;2.03;;;15.20;79.00;;;;;;4989330;28;20080;-43
2024/04/05 06:50:52;;;;;;;3.97;1.88;;;15.20;78.90;;;;;;4999281;28;20466;-41
2024/04/05 06:53:24;;;;;;;4.00;1.80;;;15.20;78.90;;;;;;4992322;28;20054;-40
2024/04/05 06:55:51;;;;;;;4.65;2.20;;;15.20;78.90;;;;;;4987636;28;20035;-42
2024/04/05 06:58:17;;;;;;;4.85;1.92;;;15.20;78.90;;;;;;4994877;28;20386;-39
2024/04/05 07:00:43;;;;;;;4.65;2.05;;;15.30;78.90;;;;;;4991454;28;20014;-40
2024/04/05 07:03:09;;;;;;;2.92;1.80;;;15.30;78.90;;;;;;4994841;28;20053;-40
2024/04/05 07:05:35;;;;;;;3.95;1.90;;;15.30;78.90;;;;;;4997790;28;20046;-36
2024/04/05 07:08:01;;;;;;;3.65;1.63;;;15.30;78.90;;;;;;4992337;28;20113;-40
2024/04/05 07:10:28;;;;;;;3.78;1.75;;;15.30;79.00;;;;;;4997434;28;20025;-40
2024/04/05 07:12:54;;;;;;;3.22;1.75;;;15.30;78.90;;;;;;4991802;28;20022;-36
2024/04/05 07:15:20;;;;;;;3.92;1.90;;;15.30;78.90;;;;;;4998643;28;20470;-39
2024/04/05 07:17:54;;;;;;;5.05;2.10;;;15.40;78.90;;;;;;4996646;28;20022;-40
2024/04/05 07:20:20;;;;;;;3.20;1.90;;;15.40;79.00;;;;;;4993574;28;20061;-40
2024/04/05 07:22:46;;;;;;;3.65;1.90;;;15.40;78.90;;;;;;4992129;28;20090;-38
2024/04/05 07:25:13;;;;;;;5.10;2.15;;;15.40;78.90;;;;;;4997476;28;20061;-39
2024/04/05 07:27:41;;;;;;;4.30;2.10;;;15.40;79.00;;;;;;4995932;28;20562;-40
2024/04/05 07:30:08;;;;;;;4.05;1.88;;;15.50;79.00;;;;;;4994882;28;20429;-40
2024/04/05 07:32:34;;;;;;;5.38;2.13;;;15.40;79.00;;;;;;4997236;28;20566;-39
2024/04/05 07:35:00;;;;;;;2.67;1.88;;;15.40;79.00;;;;;;4993017;28;20019;-36
2024/04/05 07:37:26;;;;;;;4.57;1.80;;;15.50;79.00;;;;;;4998118;28;20069;-36
2024/04/05 07:39:54;;;;;;;3.28;1.80;;;15.50;78.90;;;;;;4997311;28;20029;-40
2024/04/05 07:42:21;;;;;;;2.83;1.80;;;15.50;78.90;;;;;;4997736;28;20031;-38
2024/04/05 07:44:47;;;;;;;2.97;1.80;;;15.50;78.90;;;;;;4995875;28;20098;-38
2024/04/05 07:47:13;;;;;;;3.90;1.98;;;15.50;78.90;;;;;;4986585;28;20046;-39
2024/04/05 07:49:39;;;;;;;4.05;2.00;;;15.60;79.00;;;;;;4996632;28;20038;-36
2024/04/05 07:52:05;;;;;;;3.13;2.00;;;15.60;78.90;;;;;;4998199;28;20492;-33
2024/04/05 07:54:31;;;;;;;3.67;1.90;;;15.60;78.90;;;;;;4998448;28;20084;-39
2024/04/05 07:56:57;;;;;;;4.60;1.95;;;15.70;78.90;;;;;;4999281;28;20446;-39
2024/04/05 07:59:23;;;;;;;4.32;2.10;;;15.60;78.90;;;;;;4995143;28;20029;-36
2024/04/05 08:01:49;;;;;;;3.85;2.10;;;15.60;78.90;;;;;;4995619;28;20034;-40
2024/04/05 08:04:15;;;;;;;3.78;2.13;;;15.70;78.90;;;;;;4997591;28;20030;-40
2024/04/05 08:06:40;;;;;;;3.53;2.00;;;15.70;78.90;;;;;;4996325;28;20050;-38
2024/04/05 08:09:07;;;;;;;4.53;2.08;;;15.70;78.90;;;;;;4993793;28;20030;-39
2024/04/05 08:11:33;;;;;;;5.18;2.28;;;15.70;78.90;;;;;;4992067;28;20022;-40
2024/04/05 08:13:59;;;;;;;3.63;1.77;;;15.70;78.90;;;;;;4996563;28;20086;-39
2024/04/05 08:16:26;;;;;;;3.10;1.70;;;15.80;78.90;;;;;;4996391;28;20034;-41
2024/04/05 08:18:54;;;;;;;4.22;1.95;;;15.80;78.90;;;;;;4993942;28;20030;-41
2024/04/05 08:21:20;;;;;;;4.10;1.80;;;15.80;79.00;;;;;;4983056;28;20083;-41
2024/04/05 08:23:48;;;;;;;4.38;1.77;;;15.80;78.90;;;;;;4992055;28;20030;-42
2024/04/05 08:26:14;;;;;;;3.67;1.80;;;15.80;78.90;;;;;;4993488;28;20062;-43
2024/04/05 08:28:40;;;;;;;3.15;2.10;;;15.80;78.90;;;;;;4994550;28;20015;-41
2024/04/05 08:31:06;;;;;;;5.35;1.90;;;15.80;79.50;;;;;;4993389;28;20036;-43
2024/04/05 08:33:31;;;;;;;3.35;1.80;;;15.90;78.90;;;;;;4998849;28;20026;-41
2024/04/05 08:35:58;;;;;;;5.03;1.85;;;15.90;78.80;;;;;;5016019;28;20026;-43
2024/04/05 08:38:24;;;;;;;3.20;1.65;;;15.90;78.90;;;;;;4995582;28;20026;-42
2024/04/05 08:40:50;;;;;;;3.20;1.77;;;15.90;78.90;;;;;;4997015;28;20019;-40
2024/04/05 08:43:17;;;;;;;4.63;1.92;;;15.90;78.90;;;;;;4997721;28;20077;-42
2024/04/05 08:45:44;;;;;;;4.78;1.95;;;15.90;79.00;;;;;;4982614;28;20058;-43
2024/04/05 08:48:11;;;;;;;3.72;2.00;;;15.90;78.90;;;;;;4993566;28;20034;-42
2024/04/05 08:50:37;;;;;;;3.25;1.65;;;16.00;78.90;;;;;;5001577;28;20493;-40
2024/04/05 08:53:08;;;;;;;3.33;1.67;;;16.00;78.90;;;;;;4990236;28;20022;-39
2024/04/05 08:55:37;;;;;;;4.10;1.52;;;16.00;79.00;;;;;;4999064;28;20031;-40
2024/04/05 08:58:04;;;;;;;2.78;1.88;;;16.10;79.00;;;;;;5002340;28;20037;-41
2024/04/05 09:00:30;;;;;;;3.95;2.15;;;16.10;79.00;;;;;;4990894;28;20042;-39
2024/04/05 09:02:59;;;;;;;3.85;1.75;;;16.10;79.00;;;;;;4998772;28;20046;-37
2024/04/05 09:05:25;;;;;;;2.63;1.50;;;16.10;78.90;;;;;;4994351;28;20567;-39
2024/04/05 09:08:01;;;;;;;3.42;1.70;;;16.10;78.90;;;;;;4995882;28;20071;-40
2024/04/05 09:10:27;;;;;;;4.43;1.60;;;16.10;78.90;;;;;;4995074;28;20478;-40
2024/04/05 09:12:56;;;;;;;3.75;1.70;;;16.10;78.90;;;;;;5000582;28;20018;-40
2024/04/05 09:15:24;;;;;;;3.75;1.73;;;16.10;78.90;;;;;;4998510;28;20022;-40
2024/04/05 09:17:50;;;;;;;4.25;1.80;;;16.10;78.90;;;;;;4993565;28;20041;-39
2024/04/05 09:20:29;;;;;;;3.00;1.75;;;16.20;79.00;;;;;;5000502;28;20030;-38
2024/04/05 09:23:06;;;;;;;4.10;2.03;;;16.20;79.00;;;;;;5000359;28;20026;-38
2024/04/05 09:25:38;;;;;;;3.30;1.70;;;16.20;79.00;;;;;;4997937;28;20042;-40
2024/04/05 09:28:08;;;;;;;5.30;1.73;;;16.20;79.00;;;;;;4999484;28;20034;-39
2024/04/05 09:30:35;;;;;;;3.60;1.70;;;16.20;79.00;;;;;;4992908;28;20132;-40
2024/04/05 09:33:01;;;;;;;2.92;1.60;;;16.20;79.00;;;;;;4999823;28;20017;-41
2024/04/05 09:35:28;;;;;;;3.38;1.70;;;16.30;79.00;;;;;;4998232;28;20042;-40
2024/04/05 09:37:55;;;;;;;2.63;1.70;;;16.30;79.00;;;;;;4995489;28;20031;-40
2024/04/05 09:40:25;;;;;;;3.03;1.77;;;16.30;79.00;;;;;;4996508;28;20370;-39
2024/04/05 09:42:54;;;;;;;4.03;1.90;;;16.30;79.00;;;;;;5000486;28;20549;-40
2024/04/05 09:45:23;;;;;;;3.10;1.58;;;16.30;79.00;;;;;;4999116;28;20053;-39
2024/04/05 09:47:49;;;;;;;2.78;1.45;;;16.30;79.00;;;;;;4996536;28;20045;-40
2024/04/05 09:50:17;;;;;;;3.80;1.65;;;16.30;79.00;;;;;;4998551;28;20030;-39
2024/04/05 09:52:46;;;;;;;3.95;1.70;;;16.40;79.00;;;;;;4997183;28;20029;-39
2024/04/05 09:55:16;;;;;;;2.38;1.60;;;16.40;79.00;;;;;;4997338;28;20085;-40
2024/04/05 09:57:44;;;;;;;3.83;1.83;;;16.40;79.10;;;;;;4999972;28;20034;-40
2024/04/05 10:00:14;;;;;;;3.88;1.75;;;16.40;79.00;;;;;;4995842;28;20018;-34
2024/04/05 10:02:55;;;;;;;3.88;1.80;;;16.40;79.00;;;;;;4996679;28;20382;-35
2024/04/05 10:05:30;;;;;;;3.22;1.63;;;16.40;79.00;;;;;;4999542;28;20106;-33
2024/04/05 10:07:56;;;;;;;2.55;1.55;;;16.40;79.00;;;;;;4998964;28;20026;-33
2024/04/05 10:10:34;;;;;;;3.90;1.70;;;16.40;79.00;;;;;;4999767;28;20030;-32
2024/04/05 10:13:13;;;;;;;4.82;2.00;;;16.50;79.10;;;;;;4998852;28;20039;-34
2024/04/05 10:15:39;;;;;;;3.85;1.90;;;16.50;79.10;;;;;;4999809;28;20033;-35
2024/04/05 10:18:08;;;;;;;2.53;1.70;;;16.50;79.00;;;;;;5026603;28;20030;-37
2024/04/05 10:20:34;;;;;;;3.45;1.73;;;16.50;79.00;;;;;;5025103;28;20015;-34
2024/04/05 10:23:01;;;;;;;3.72;1.77;;;16.50;79.00;;;;;;5000467;28;20044;-31
2024/04/05 10:25:27;;;;;;;3.05;1.65;;;16.50;79.00;;;;;;4996755;28;20045;-31
2024/04/05 10:27:55;;;;;;;3.35;1.80;;;16.50;79.00;;;;;;5032553;28;20050;-35
2024/04/05 10:30:23;;;;;;;2.13;1.60;;;16.60;79.10;;;;;;4993899;28;20062;-36
2024/04/05 10:32:57;;;;;;;2.85;1.55;;;16.60;79.00;;;;;;4998962;28;20018;-39
2024/04/05 10:35:23;;;;;;;3.13;1.70;;;16.60;79.00;;;;;;4991639;28;20198;-36
2024/04/05 10:37:59;;;;;;;2.03;1.45;;;16.60;78.90;;;;;;4998241;28;20099;-36
2024/04/05 10:40:25;;;;;;;2.78;1.52;;;16.60;78.90;;;;;;4998618;28;20041;-34
2024/04/05 10:42:51;;;;;;;2.58;1.60;;;16.70;79.00;;;;;;4998358;28;20118;-32
2024/04/05 10:45:20;;;;;;;2.05;1.42;;;16.70;79.00;;;;;;4992529;28;20069;-33
2024/04/05 10:47:55;;;;;;;2.58;1.80;;;16.70;78.90;;;;;;4990005;28;20059;-31
2024/04/05 10:50:21;;;;;;;3.95;1.60;;;16.80;78.90;;;;;;4999607;28;20034;-35
2024/04/05 10:52:54;;;;;;;2.97;1.95;;;16.80;78.90;;;;;;4996518;28;20034;-36
2024/04/05 10:55:22;;;;;;;2.53;1.67;;;16.80;79.00;;;;;;4986122;28;20030;-34
2024/04/05 10:57:48;;;;;;;2.92;2.00;;;16.80;78.90;;;;;;4993458;28;20030;-36
2024/04/05 11:00:14;;;;;;;2.20;1.60;;;16.80;78.90;;;;;;4992539;28;20030;-36
2024/04/05 11:02:42;;;;;;;3.03;1.60;;;16.90;78.90;;;;;;4997509;28;20498;-35
2024/04/05 11:05:13;;;;;;;3.42;1.65;;;16.90;78.90;;;;;;4993169;28;20061;-34
2024/04/05 11:07:44;;;;;;;2.50;1.67;;;16.90;78.90;;;;;;4985238;28;20414;-34
2024/04/05 11:10:21;;;;;;;2.03;1.58;;;17.00;78.90;;;;;;4995123;28;20545;-33
2024/04/05 11:12:48;;;;;;;3.45;1.55;;;17.00;78.90;;;;;;4986665;28;20061;-34
2024/04/05 11:15:18;;;;;;;2.22;1.60;;;17.00;78.90;;;;;;4998327;28;20029;-35
2024/04/05 11:17:46;;;;;;;3.97;2.00;;;17.10;78.90;;;;;;4993049;28;20142;-38
2024/04/05 11:20:13;;;;;;;2.75;1.67;;;17.10;78.80;;;;;;4997398;28;20029;-36
2024/04/05 11:22:41;;;;;;;3.08;1.30;;;17.10;78.80;;;;;;4998340;28;20027;-38
2024/04/05 11:25:08;;;;;;;2.10;1.63;;;17.10;78.80;;;;;;4990897;28;20046;-39
2024/04/05 11:27:35;;;;;;;2.67;1.80;;;17.10;78.90;;;;;;4988219;28;20026;-39
2024/04/05 11:30:04;;;;;;;3.13;1.75;;;17.20;79.00;;;;;;4990668;28;20054;-39
2024/04/05 11:32:32;;;;;;;2.80;1.85;;;17.20;79.00;;;;;;4997263;28;20037;-36
2024/04/05 11:35:05;;;;;;;1.70;1.27;;;17.20;78.90;;;;;;4998056;28;20062;-36
2024/04/05 11:37:31;;;;;;;1.63;1.52;;;17.30;78.90;;;;;;4995153;28;20379;-36
2024/04/05 11:39:58;;;;;;;2.03;1.70;;;17.30;78.90;;;;;;4991342;28;20050;-39
2024/04/05 11:42:23;;;;;;;2.42;1.70;;;17.30;78.90;;;;;;4998682;28;20053;-38
2024/04/05 11:44:49;;;;;;;2.47;1.90;;;17.30;79.00;;;;;;4992531;28;20054;-40
2024/04/05 11:47:16;;;;;;;2.20;1.40;;;17.40;79.00;;;;;;4991288;28;20050;-36
2024/04/05 11:49:41;;;;;;;2.25;1.83;;;17.40;79.00;;;;;;4997091;28;20793;-37
2024/04/05 11:52:07;;;;;;;2.80;1.73;;;17.40;78.90;;;;;;4999884;28;20022;-36
2024/04/05 11:54:33;;;;;;;2.80;1.73;;;17.40;78.80;;;;;;5002912;28;20050;-37
2024/04/05 11:56:59;;;;;;;2.33;1.60;;;17.40;78.80;;;;;;4989686;28;20029;-38
2024/04/05 11:59:25;;;;;;;3.08;1.70;;;17.40;78.80;;;;;;4997990;28;20022;-33
2024/04/05 12:01:52;;;;;;;2.92;1.60;;;17.50;79.00;;;;;;4994677;28;20451;-39
2024/04/05 12:04:18;;;;;;;1.70;1.58;;;17.50;78.90;;;;;;4996803;28;20036;-38
2024/04/05 12:06:43;;;;;;;3.30;1.70;;;17.60;78.90;;;;;;4989701;28;20031;-32
2024/04/05 12:09:46;;;;;;;2.35;1.55;;;17.50;78.80;;;;;;4999380;28;20565;-40
2024/04/05 12:12:12;;;;;;;2.08;1.55;;;17.60;78.80;;;;;;5001259;28;20026;-34
2024/04/05 12:14:38;;;;;;;2.47;1.50;;;17.50;78.70;;;;;;4997843;28;20073;-31
2024/04/05 12:17:04;;;;;;;1.92;1.40;;;17.50;79.40;;;;;;4989360;28;20026;-36
2024/04/05 12:19:30;;;;;;;2.83;1.70;;;17.60;78.90;;;;;;4998827;28;20094;-38
2024/04/05 12:21:56;;;;;;;2.47;1.50;;;17.60;78.80;;;;;;4995438;28;20047;-37
2024/04/05 12:24:22;;;;;;;1.77;1.40;;;17.60;78.70;;;;;;4998989;28;20026;-38
2024/04/05 12:26:48;;;;;;;3.17;1.67;;;17.60;78.70;;;;;;4994839;28;20049;-37
2024/04/05 12:29:14;;;;;;;3.03;1.58;;;17.60;78.60;;;;;;4994295;28;20023;-37
2024/04/05 12:31:40;;;;;;;1.80;1.50;;;17.60;78.60;;;;;;4995537;28;20035;-38
2024/04/05 12:34:06;;;;;;;2.80;1.50;;;17.70;79.40;;;;;;5001028;28;20022;-37
2024/04/05 12:36:32;;;;;;;2.03;1.58;;;17.70;78.70;;;;;;5017455;28;20087;-36
2024/04/05 12:39:06;;;;;;;2.72;1.52;;;17.70;78.70;;;;;;4996673;28;20103;-31
2024/04/05 12:41:35;;;;;;;2.47;1.40;;;17.70;78.60;;;;;;5000728;28;20589;-33
2024/04/05 12:44:01;;;;;;;2.50;1.45;;;17.70;78.60;;;;;;4997559;28;20031;-35
2024/04/05 12:46:27;;;;;;;2.17;1.40;;;17.70;78.50;;;;;;5000209;28;20090;-33